createdAt,value
2024-01-05T00:01:12.078Z,6.35
2024-01-05T00:03:39.692Z,6.33
2024-01-05T00:06:09.028Z,6.29
2024-01-05T00:08:36.175Z,6.27
2024-01-05T00:11:03.673Z,6.24
2024-01-05T00:13:30.819Z,6.20
2024-01-05T00:15:57.900Z,6.18
2024-01-05T00:18:26.218Z,6.15
2024-01-05T00:20:53.718Z,6.13
2024-01-05T00:23:21.219Z,6.10
2024-01-05T00:25:49.117Z,6.07
2024-01-05T00:28:16.258Z,6.03
2024-01-05T00:30:43.488Z,6.06
2024-01-05T00:33:11.080Z,6.05
2024-01-05T00:35:39.144Z,5.99
2024-01-05T00:38:06.236Z,5.94
2024-01-05T00:40:33.760Z,5.93
2024-01-05T00:43:01.313Z,5.89
2024-01-05T00:45:28.452Z,5.86
2024-01-05T00:47:56.401Z,5.83
2024-01-05T00:50:23.727Z,5.83
2024-01-05T00:52:51.349Z,5.82
2024-01-05T00:55:18.921Z,5.78
2024-01-05T00:57:46.645Z,5.72
2024-01-05T01:00:15.023Z,5.71
2024-01-05T01:02:43.286Z,5.69
2024-01-05T01:05:11.311Z,5.65
2024-01-05T01:07:40.799Z,5.66
2024-01-05T01:10:08.285Z,5.61
2024-01-05T01:12:35.783Z,5.61
2024-01-05T01:15:03.381Z,5.57
2024-01-05T01:17:31.912Z,5.57
2024-01-05T01:19:59.612Z,5.54
2024-01-05T01:22:26.448Z,5.54
2024-01-05T01:24:53.892Z,5.49
2024-01-05T01:27:21.399Z,5.49
2024-01-05T01:29:49.755Z,5.47
2024-01-05T01:32:16.675Z,5.46
2024-01-05T01:34:44.477Z,5.45
2024-01-05T01:37:11.916Z,5.41
2024-01-05T01:39:39.069Z,5.41
2024-01-05T01:42:06.317Z,5.38
2024-01-05T01:44:33.564Z,5.38
2024-01-05T01:47:00.898Z,5.35
2024-01-05T01:49:28.451Z,5.33
2024-01-05T01:51:56.355Z,5.34
2024-01-05T01:54:23.932Z,5.35
2024-01-05T01:56:52.196Z,5.33
2024-01-05T01:59:20.042Z,5.31
2024-01-05T02:01:47.944Z,5.34
2024-01-05T02:04:19.256Z,5.36
2024-01-05T02:06:48.181Z,5.33
2024-01-05T02:09:15.391Z,5.35
2024-01-05T02:11:42.602Z,5.36
2024-01-05T02:14:10.560Z,5.36
2024-01-05T02:16:37.639Z,5.34
2024-01-05T02:19:05.388Z,5.32
2024-01-05T02:21:39.229Z,5.33
2024-01-05T02:24:06.972Z,5.32
2024-01-05T02:26:34.617Z,5.27
2024-01-05T02:29:05.154Z,5.27
2024-01-05T02:31:32.553Z,5.28
2024-01-05T02:34:00.163Z,5.27
2024-01-05T02:36:27.996Z,5.27
2024-01-05T02:38:55.242Z,5.26
2024-01-05T02:41:23.116Z,5.25
2024-01-05T02:43:50.601Z,5.24
2024-01-05T02:46:17.708Z,5.24
2024-01-05T02:48:45.905Z,5.28
2024-01-05T02:51:15.873Z,5.22
2024-01-05T02:53:43.184Z,5.24
2024-01-05T02:56:20.310Z,5.21
2024-01-05T02:58:48.147Z,5.21
2024-01-05T03:01:18.878Z,5.20
2024-01-05T03:03:51.270Z,5.18
2024-01-05T03:06:21.106Z,5.19
2024-01-05T03:08:48.203Z,5.19
2024-01-05T03:11:15.786Z,5.17
2024-01-05T03:13:43.284Z,5.19
2024-01-05T03:16:10.824Z,5.19
2024-01-05T03:18:38.345Z,5.18
2024-01-05T03:21:05.909Z,5.18
2024-01-05T03:23:33.628Z,5.19
2024-01-05T03:26:00.674Z,5.18
2024-01-05T03:28:28.346Z,5.18
2024-01-05T03:30:55.793Z,5.20
2024-01-05T03:33:23.337Z,5.21
2024-01-05T03:35:50.907Z,5.20
2024-01-05T03:38:18.200Z,5.17
2024-01-05T03:40:45.608Z,5.19
2024-01-05T03:43:13.017Z,5.18
2024-01-05T03:45:40.570Z,5.18
2024-01-05T03:48:08.373Z,5.20
2024-01-05T03:50:35.277Z,5.21
2024-01-05T03:53:02.668Z,5.21
2024-01-05T03:55:30.039Z,5.23
2024-01-05T03:57:57.435Z,5.23
2024-01-05T04:00:25.031Z,5.23
2024-01-05T04:02:52.329Z,5.23
2024-01-05T04:05:19.762Z,5.23
2024-01-05T04:07:47.273Z,5.22
2024-01-05T04:10:14.787Z,5.22
2024-01-05T04:12:41.935Z,5.19
2024-01-05T04:15:10.131Z,5.18
2024-01-05T04:17:37.329Z,5.19
2024-01-05T04:20:05.123Z,5.20
2024-01-05T04:22:33.116Z,5.19
2024-01-05T04:25:00.505Z,5.17
2024-01-05T04:27:28.018Z,5.16
2024-01-05T04:29:55.508Z,5.16
2024-01-05T04:32:22.644Z,5.13
2024-01-05T04:34:50.072Z,5.11
2024-01-05T04:37:17.889Z,5.11
2024-01-05T04:39:45.116Z,5.09
2024-01-05T04:42:13.251Z,5.08
2024-01-05T04:44:41.001Z,5.10
2024-01-05T04:47:08.441Z,5.07
2024-01-05T04:49:35.926Z,5.07
2024-01-05T04:52:03.898Z,5.08
2024-01-05T04:54:31.287Z,5.08
2024-01-05T04:57:00.157Z,5.07
2024-01-05T04:59:28.224Z,5.07
2024-01-05T05:01:55.412Z,5.06
2024-01-05T05:04:22.924Z,5.07
2024-01-05T05:06:50.723Z,5.06
2024-01-05T05:09:18.151Z,5.03
2024-01-05T05:11:45.694Z,5.02
2024-01-05T05:14:12.942Z,5.03
2024-01-05T05:16:41.615Z,5.00
2024-01-05T05:19:09.472Z,5.01
2024-01-05T05:21:37.472Z,5.00
2024-01-05T05:24:05.363Z,4.96
2024-01-05T05:26:32.801Z,4.93
2024-01-05T05:29:00.215Z,4.91
2024-01-05T05:31:27.792Z,4.90
2024-01-05T05:33:55.176Z,4.89
2024-01-05T05:36:23.173Z,4.85
2024-01-05T05:38:50.688Z,4.82
2024-01-05T05:41:18.380Z,4.79
2024-01-05T05:43:47.329Z,4.76
2024-01-05T05:46:15.260Z,4.72
2024-01-05T05:48:42.559Z,4.70
2024-01-05T05:51:09.808Z,4.66
2024-01-05T05:53:37.344Z,4.66
2024-01-05T05:56:05.271Z,4.62
2024-01-05T05:58:32.384Z,4.57
2024-01-05T06:01:00.443Z,4.55
2024-01-05T06:03:28.048Z,4.53
2024-01-05T06:05:55.247Z,4.52
2024-01-05T06:08:23.092Z,4.51
2024-01-05T06:10:50.156Z,4.48
2024-01-05T06:13:17.546Z,4.42
2024-01-05T06:15:45.007Z,4.43
2024-01-05T06:18:12.930Z,4.42
2024-01-05T06:20:40.401Z,4.40
2024-01-05T06:23:07.850Z,4.37
2024-01-05T06:25:35.154Z,4.32
2024-01-05T06:28:02.751Z,4.34
2024-01-05T06:30:30.434Z,4.31
2024-01-05T06:32:57.799Z,4.29
2024-01-05T06:35:25.346Z,4.28
2024-01-05T06:37:52.797Z,4.26
2024-01-05T06:40:19.948Z,4.22
2024-01-05T06:42:47.133Z,4.21
2024-01-05T06:45:15.390Z,4.17
2024-01-05T06:47:42.485Z,4.14
2024-01-05T06:50:09.942Z,4.11
2024-01-05T06:52:37.789Z,4.09
2024-01-05T06:55:04.856Z,4.07
2024-01-05T06:57:33.318Z,4.03
2024-01-05T07:00:01.018Z,4.01
2024-01-05T07:02:29.860Z,4.00
2024-01-05T07:04:57.382Z,3.98
2024-01-05T07:07:25.494Z,3.96
2024-01-05T07:09:52.916Z,3.94
2024-01-05T07:12:21.116Z,3.90
2024-01-05T07:14:48.801Z,3.89
2024-01-05T07:17:16.522Z,3.89
2024-01-05T07:19:43.705Z,3.90
2024-01-05T07:22:11.161Z,3.90
2024-01-05T07:24:40.012Z,3.89
2024-01-05T07:27:07.831Z,3.89
2024-01-05T07:29:35.451Z,3.90
2024-01-05T07:32:03.213Z,3.89
2024-01-05T07:34:30.443Z,3.90
2024-01-05T07:36:57.345Z,3.89
2024-01-05T07:39:25.108Z,3.91
2024-01-05T07:41:52.816Z,3.92
2024-01-05T07:44:20.261Z,3.95
2024-01-05T07:46:47.419Z,3.95
2024-01-05T07:49:14.718Z,3.95
2024-01-05T07:51:42.826Z,3.95
2024-01-05T07:54:10.540Z,3.96
2024-01-05T07:56:41.840Z,4.00
2024-01-05T07:59:09.341Z,4.03
2024-01-05T08:01:36.251Z,4.01
2024-01-05T08:04:03.243Z,4.01
2024-01-05T08:06:31.318Z,4.03
2024-01-05T08:08:58.305Z,4.06
2024-01-05T08:11:25.393Z,4.08
2024-01-05T08:13:53.588Z,4.09
2024-01-05T08:16:20.807Z,4.13
2024-01-05T08:18:48.789Z,4.15
2024-01-05T08:21:16.339Z,4.20
2024-01-05T08:23:43.578Z,4.23
2024-01-05T08:26:10.483Z,4.27
2024-01-05T08:28:38.045Z,4.31
2024-01-05T08:31:05.569Z,4.37
2024-01-05T08:33:32.909Z,4.41
2024-01-05T08:36:00.880Z,4.47
2024-01-05T08:38:28.713Z,4.52
2024-01-05T08:40:56.170Z,4.55
2024-01-05T08:43:23.547Z,4.61
2024-01-05T08:45:50.506Z,4.67
2024-01-05T08:48:18.175Z,4.72
2024-01-05T08:50:45.348Z,4.75
2024-01-05T08:53:13.213Z,4.81
2024-01-05T08:55:40.929Z,4.84
2024-01-05T08:58:08.497Z,4.89
2024-01-05T09:03:20.777Z,4.97
2024-01-05T09:05:48.419Z,4.99
2024-01-05T09:08:15.906Z,5.02
2024-01-05T09:10:43.147Z,5.03
2024-01-05T09:13:10.350Z,5.05
2024-01-05T09:15:37.596Z,5.09
2024-01-05T09:18:06.770Z,5.11
2024-01-05T09:20:34.448Z,5.15
2024-01-05T09:23:01.990Z,5.19
2024-01-05T09:25:30.533Z,5.20
2024-01-05T09:28:01.648Z,5.23
2024-01-05T09:30:28.927Z,5.27
2024-01-05T09:32:58.755Z,5.29
2024-01-05T09:35:27.229Z,5.35
2024-01-05T09:37:54.432Z,5.37
2024-01-05T09:40:22.015Z,5.40
2024-01-05T09:42:53.002Z,5.43
2024-01-05T09:45:22.770Z,5.47
2024-01-05T09:47:51.709Z,5.49
2024-01-05T09:50:19.838Z,5.51
2024-01-05T09:52:46.966Z,5.54
2024-01-05T09:55:14.519Z,5.58
2024-01-05T09:57:43.669Z,5.60
2024-01-05T10:00:16.195Z,5.63
2024-01-05T10:02:55.415Z,5.67
2024-01-05T10:05:22.644Z,5.69
2024-01-05T10:07:50.566Z,5.69
2024-01-05T10:10:17.737Z,5.73
2024-01-05T10:12:45.482Z,5.74
2024-01-05T10:15:14.456Z,5.76
2024-01-05T10:17:41.856Z,5.79
2024-01-05T10:20:18.730Z,5.82
2024-01-05T10:22:48.108Z,5.85
2024-01-05T10:25:23.465Z,5.89
2024-01-05T10:27:54.572Z,5.92
2024-01-05T10:30:26.900Z,5.95
2024-01-05T10:33:05.387Z,5.98
2024-01-05T10:35:35.841Z,6.02
2024-01-05T10:38:10.916Z,6.05
2024-01-05T10:40:41.954Z,6.08
2024-01-05T10:43:14.896Z,6.11
2024-01-05T10:45:43.927Z,6.13
2024-01-05T10:48:15.636Z,6.14
2024-01-05T10:50:45.168Z,6.17
2024-01-05T10:53:13.486Z,6.19
2024-01-05T10:55:41.545Z,6.20
2024-01-05T10:58:09.404Z,6.23
2024-01-05T11:00:38.347Z,6.23
2024-01-05T11:03:05.504Z,6.24
2024-01-05T11:05:33.103Z,6.25
2024-01-05T11:08:02.564Z,6.26
2024-01-05T11:10:53.842Z,6.28
2024-01-05T11:13:49.324Z,6.30
2024-01-05T11:16:19.547Z,6.32
2024-01-05T11:19:05.695Z,6.35
2024-01-05T11:21:53.199Z,6.37
2024-01-05T11:24:22.564Z,6.41
2024-01-05T11:26:49.725Z,6.42
2024-01-05T11:29:48.944Z,6.45
2024-01-05T11:32:34.703Z,6.47
2024-01-05T11:35:25.544Z,6.51
2024-01-05T11:37:53.178Z,6.55
2024-01-05T11:40:34.037Z,6.64
2024-01-05T11:43:37.751Z,6.69
2024-01-05T11:46:06.036Z,6.69
2024-01-05T11:48:37.904Z,6.69
2024-01-05T11:51:09.899Z,6.72
2024-01-05T11:53:37.636Z,6.75
2024-01-05T11:56:11.743Z,6.70
2024-01-05T11:58:45.034Z,6.72
2024-01-05T12:01:14.523Z,6.74
2024-01-05T12:03:42.923Z,6.76
2024-01-05T12:06:11.991Z,6.79
2024-01-05T12:08:41.962Z,6.80
2024-01-05T12:11:12.559Z,6.81
2024-01-05T12:13:40.295Z,6.83
2024-01-05T12:16:10.470Z,6.85
2024-01-05T12:18:45.238Z,6.87
2024-01-05T12:21:16.100Z,6.88
2024-01-05T12:23:52.932Z,6.90
2024-01-05T12:26:20.407Z,6.91
2024-01-05T12:28:49.631Z,6.91
2024-01-05T12:31:17.195Z,6.94
2024-01-05T12:33:45.094Z,6.95
2024-01-05T12:36:24.945Z,6.96
2024-01-05T12:38:52.503Z,6.98
2024-01-05T12:41:21.670Z,6.99
2024-01-05T12:43:54.260Z,7.00
2024-01-05T12:46:24.338Z,7.02
2024-01-05T12:48:52.348Z,7.03
2024-01-05T12:51:21.325Z,7.05
2024-01-05T12:54:06.691Z,7.06
2024-01-05T12:56:34.396Z,7.06
2024-01-05T12:59:04.100Z,7.09
2024-01-05T13:01:30.964Z,7.09
2024-01-05T13:04:01.594Z,7.09
2024-01-05T13:06:32.099Z,7.11
2024-01-05T13:08:59.780Z,7.12
2024-01-05T13:11:27.531Z,7.12
2024-01-05T13:13:55.114Z,7.14
2024-01-05T13:16:22.276Z,7.14
2024-01-05T13:18:50.088Z,7.15
2024-01-05T13:21:17.560Z,7.15
2024-01-05T13:23:45.899Z,7.17
2024-01-05T13:26:12.792Z,7.18
2024-01-05T13:28:42.236Z,7.18
2024-01-05T13:31:10.564Z,7.19
2024-01-05T13:33:38.478Z,7.22
2024-01-05T13:36:06.963Z,7.24
2024-01-05T13:38:35.148Z,7.24
2024-01-05T13:41:02.621Z,7.28
2024-01-05T13:43:30.041Z,7.30
2024-01-05T13:46:00.124Z,7.33
2024-01-05T13:48:28.227Z,7.35
2024-01-05T13:50:55.286Z,7.37
2024-01-05T13:53:22.858Z,7.39
2024-01-05T13:55:50.094Z,7.42
2024-01-05T13:58:17.367Z,7.46
2024-01-05T14:00:46.462Z,7.47
2024-01-05T14:03:13.470Z,7.48
2024-01-05T14:05:40.931Z,7.50
2024-01-05T14:08:08.732Z,7.52
2024-01-05T14:10:35.852Z,7.55
2024-01-05T14:13:02.799Z,7.56
2024-01-05T14:15:30.393Z,7.57
2024-01-05T14:17:57.283Z,7.57
2024-01-05T14:20:24.397Z,7.60
2024-01-05T14:22:52.234Z,7.61
2024-01-05T14:25:19.094Z,7.61
2024-01-05T14:27:46.359Z,7.62
2024-01-05T14:30:13.973Z,7.63
2024-01-05T14:32:41.405Z,7.64
2024-01-05T14:35:09.073Z,7.63
2024-01-05T14:37:38.159Z,7.64
2024-01-05T14:40:07.506Z,7.64
2024-01-05T14:42:34.661Z,7.64
2024-01-05T14:45:02.232Z,7.64
2024-01-05T14:47:30.726Z,7.64
2024-01-05T14:49:58.266Z,7.63
2024-01-05T14:52:25.873Z,7.63
2024-01-05T14:54:57.412Z,7.64
2024-01-05T14:57:25.239Z,7.64
2024-01-05T14:59:54.805Z,7.63
2024-01-05T15:02:22.046Z,7.63
2024-01-05T15:04:49.668Z,7.63
2024-01-05T15:07:17.055Z,7.62
2024-01-05T15:09:45.639Z,7.61
2024-01-05T15:12:14.774Z,7.60
2024-01-05T15:14:41.767Z,7.60
2024-01-05T15:17:09.349Z,7.61
2024-01-05T15:19:37.662Z,7.61
2024-01-05T15:22:05.018Z,7.61
2024-01-05T15:24:32.267Z,7.61
2024-01-05T15:27:00.870Z,7.62
2024-01-05T15:29:27.997Z,7.62
2024-01-05T15:31:55.810Z,7.62
2024-01-05T15:34:23.856Z,7.61
2024-01-05T15:36:53.403Z,7.60
2024-01-05T15:39:20.947Z,7.60
2024-01-05T15:41:48.529Z,7.60
2024-01-05T15:44:16.522Z,7.60
2024-01-05T15:46:44.304Z,7.59
2024-01-05T15:49:11.456Z,7.58
2024-01-05T15:51:39.070Z,7.58
2024-01-05T15:54:06.796Z,7.57
2024-01-05T15:56:34.699Z,7.56
2024-01-05T15:59:02.151Z,7.56
2024-01-05T16:01:29.027Z,7.55
2024-01-05T16:03:56.603Z,7.54
2024-01-05T16:06:24.227Z,7.55
2024-01-05T16:08:51.511Z,7.55
2024-01-05T16:11:19.166Z,7.56
2024-01-05T16:13:48.637Z,7.54
2024-01-05T16:16:21.479Z,7.53
2024-01-05T16:18:51.302Z,7.53
2024-01-05T16:21:23.234Z,7.52
2024-01-05T16:23:51.901Z,7.52
2024-01-05T16:26:20.593Z,7.52
2024-01-05T16:28:47.852Z,7.51
2024-01-05T16:31:15.462Z,7.52
2024-01-05T16:33:43.261Z,7.49
2024-01-05T16:36:11.439Z,7.50
2024-01-05T16:38:38.580Z,7.51
2024-01-05T16:41:10.453Z,7.50
2024-01-05T16:43:38.725Z,7.52
2024-01-05T16:46:06.562Z,7.53
2024-01-05T16:48:34.183Z,7.54
2024-01-05T16:51:02.173Z,7.54
2024-01-05T16:53:30.861Z,7.56
2024-01-05T16:55:58.199Z,7.56
2024-01-05T16:58:25.202Z,7.59
2024-01-05T17:00:53.203Z,7.59
2024-01-05T17:03:20.639Z,7.61
2024-01-05T17:05:48.543Z,7.62
2024-01-05T17:08:16.505Z,7.62
2024-01-05T17:10:43.751Z,7.64
2024-01-05T17:13:10.858Z,7.66
2024-01-05T17:15:38.056Z,7.68
2024-01-05T17:18:06.041Z,7.69
2024-01-05T17:20:33.560Z,7.71
2024-01-05T17:23:01.449Z,7.72
2024-01-05T17:25:28.286Z,7.76
2024-01-05T17:27:55.479Z,7.79
2024-01-05T17:30:23.647Z,7.80
2024-01-05T17:32:51.062Z,7.83
2024-01-05T17:35:21.046Z,7.84
2024-01-05T17:37:48.630Z,7.87
2024-01-05T17:40:15.943Z,7.89
2024-01-05T17:42:42.915Z,7.92
2024-01-05T17:45:10.677Z,7.95
2024-01-05T17:47:38.458Z,7.96
2024-01-05T17:50:06.086Z,7.97
2024-01-05T17:52:33.284Z,8.00
2024-01-05T17:55:00.398Z,8.01
2024-01-05T17:57:27.734Z,8.02
2024-01-05T17:59:54.913Z,8.04
2024-01-05T18:02:22.094Z,8.07
2024-01-05T18:04:50.005Z,8.08
2024-01-05T18:07:18.198Z,8.09
2024-01-05T18:09:46.173Z,8.11
2024-01-05T18:12:13.624Z,8.11
2024-01-05T18:14:40.588Z,8.13
2024-01-05T18:17:08.297Z,8.14
2024-01-05T18:19:35.639Z,8.15
2024-01-05T18:22:03.277Z,8.17
2024-01-05T18:24:31.105Z,8.19
2024-01-05T18:26:59.916Z,8.21
2024-01-05T18:29:29.539Z,8.22
2024-01-05T18:32:00.620Z,8.25
2024-01-05T18:34:28.574Z,8.25
2024-01-05T18:36:56.283Z,8.27
2024-01-05T18:39:23.370Z,8.28
2024-01-05T18:41:50.732Z,8.30
2024-01-05T18:44:18.285Z,8.30
2024-01-05T18:46:45.681Z,8.30
2024-01-05T18:49:14.041Z,8.31
2024-01-05T18:51:41.176Z,8.31
2024-01-05T18:54:08.609Z,8.31
2024-01-05T18:56:36.269Z,8.32
2024-01-05T18:59:04.842Z,8.34
2024-01-05T19:01:33.464Z,8.35
2024-01-05T19:04:01.157Z,8.34
2024-01-05T19:06:28.631Z,8.34
2024-01-05T19:08:55.625Z,8.36
2024-01-05T19:11:23.505Z,8.37
2024-01-05T19:13:50.620Z,8.37
2024-01-05T19:16:18.034Z,8.37
2024-01-05T19:18:45.987Z,8.37
2024-01-05T19:21:14.929Z,8.37
2024-01-05T19:23:41.964Z,8.38
2024-01-05T19:26:09.271Z,8.38
2024-01-05T19:28:36.408Z,8.39
2024-01-05T19:31:05.570Z,8.39
2024-01-05T19:33:34.153Z,8.40
2024-01-05T19:36:01.892Z,8.39
2024-01-05T19:38:29.679Z,8.39
2024-01-05T19:40:56.746Z,8.38
2024-01-05T19:43:23.678Z,8.38
2024-01-05T19:45:51.903Z,8.39
2024-01-05T19:48:19.243Z,8.40
2024-01-05T19:50:47.226Z,8.39
2024-01-05T19:53:14.703Z,8.38
2024-01-05T19:55:41.509Z,8.38
2024-01-05T19:58:08.635Z,8.37
2024-01-05T20:00:36.374Z,8.38
2024-01-05T20:03:06.015Z,8.37
2024-01-05T20:05:34.182Z,8.35
2024-01-05T20:08:02.638Z,8.35
2024-01-05T20:10:31.229Z,8.34
2024-01-05T20:12:58.900Z,8.35
2024-01-05T20:15:28.521Z,8.34
2024-01-05T20:17:56.443Z,8.33
2024-01-05T20:20:23.760Z,8.32
2024-01-05T20:22:50.934Z,8.33
2024-01-05T20:25:17.827Z,8.34
2024-01-05T20:27:45.518Z,8.33
2024-01-05T20:30:13.888Z,8.32
2024-01-05T20:32:41.479Z,8.34
2024-01-05T20:35:11.354Z,8.34
2024-01-05T20:37:39.408Z,8.32
2024-01-05T20:40:10.227Z,8.32
2024-01-05T20:42:38.123Z,8.32
2024-01-05T20:45:09.054Z,8.35
2024-01-05T20:47:36.314Z,8.35
2024-01-05T20:50:05.056Z,8.36
2024-01-05T20:52:34.328Z,8.36
2024-01-05T20:55:02.525Z,8.36
2024-01-05T20:57:29.840Z,8.36
2024-01-05T20:59:57.578Z,8.36
2024-01-05T21:02:25.063Z,8.36
2024-01-05T21:04:52.935Z,8.37
2024-01-05T21:07:20.539Z,8.37
2024-01-05T21:09:48.109Z,8.35
2024-01-05T21:12:15.281Z,8.34
2024-01-05T21:14:42.551Z,8.35
2024-01-05T21:17:10.056Z,8.34
2024-01-05T21:19:41.454Z,8.34
2024-01-05T21:22:09.158Z,8.34
2024-01-05T21:24:41.788Z,8.34
2024-01-05T21:27:10.989Z,8.34
2024-01-05T21:29:46.199Z,8.34
2024-01-05T21:32:17.415Z,8.34
2024-01-05T21:34:45.433Z,8.32
2024-01-05T21:37:16.324Z,8.33
2024-01-05T21:39:43.563Z,8.34
2024-01-05T21:42:12.380Z,8.34
2024-01-05T21:44:39.595Z,8.34
2024-01-05T21:47:07.261Z,8.34
2024-01-05T21:49:36.887Z,8.35
2024-01-05T21:52:04.966Z,8.37
2024-01-05T21:54:31.820Z,8.35
2024-01-05T21:57:01.165Z,8.35
2024-01-05T21:59:30.478Z,8.35
2024-01-05T22:01:58.668Z,8.36
2024-01-05T22:04:29.149Z,8.36
2024-01-05T22:06:57.932Z,8.38
2024-01-05T22:09:25.280Z,8.37
2024-01-05T22:11:52.674Z,8.36
2024-01-05T22:14:20.146Z,8.36
2024-01-05T22:16:50.337Z,8.37
2024-01-05T22:19:17.576Z,8.36
2024-01-05T22:21:45.160Z,8.37
2024-01-05T22:24:12.684Z,8.37
2024-01-05T22:26:39.557Z,8.37
2024-01-05T22:29:07.450Z,8.36
2024-01-05T22:31:34.958Z,8.36
2024-01-05T22:34:02.403Z,8.36
2024-01-05T22:36:29.946Z,8.36
2024-01-05T22:38:57.437Z,8.38
2024-01-05T22:41:25.000Z,8.37
2024-01-05T22:43:53.808Z,8.36
2024-01-05T22:46:22.249Z,8.34
2024-01-05T22:48:50.590Z,8.34
2024-01-05T22:51:25.887Z,8.33
2024-01-05T22:53:53.586Z,8.33
2024-01-05T22:56:21.155Z,8.32
2024-01-05T22:58:48.169Z,8.31
2024-01-05T23:01:24.635Z,8.30
2024-01-05T23:03:53.229Z,8.30
2024-01-05T23:06:21.182Z,8.30
2024-01-05T23:08:48.854Z,8.31
2024-01-05T23:11:16.420Z,8.30
2024-01-05T23:13:45.039Z,8.28
2024-01-05T23:16:12.576Z,8.28
2024-01-05T23:18:40.194Z,8.27
2024-01-05T23:21:09.108Z,8.27
2024-01-05T23:23:37.829Z,8.26
2024-01-05T23:26:05.362Z,8.26
2024-01-05T23:28:32.884Z,8.26
2024-01-05T23:31:00.113Z,8.25
2024-01-05T23:33:28.160Z,8.25
2024-01-05T23:35:55.693Z,8.23
2024-01-05T23:38:23.624Z,8.21
2024-01-05T23:40:51.116Z,8.21
2024-01-05T23:43:18.291Z,8.21
2024-01-05T23:45:45.812Z,8.19
2024-01-05T23:48:13.992Z,8.19
2024-01-05T23:50:41.241Z,8.18
2024-01-05T23:53:08.622Z,8.17
2024-01-05T23:55:35.780Z,8.16
2024-01-05T23:58:04.234Z,8.15
